createdAt,value
2022-08-05T00:00:50.181Z,27.99
2022-08-05T00:03:17.017Z,28.03
2022-08-05T00:06:05.582Z,28.03
2022-08-05T00:08:34.374Z,28.03
2022-08-05T00:11:20.317Z,28.09
2022-08-05T00:13:52.949Z,28.08
2022-08-05T00:16:20.218Z,28.01
2022-08-05T00:19:03.745Z,27.99
2022-08-05T00:21:30.508Z,27.99
2022-08-05T00:24:10.677Z,27.96
2022-08-05T00:26:38.195Z,27.88
2022-08-05T00:29:04.693Z,27.80
2022-08-05T00:31:53.961Z,27.83
2022-08-05T00:34:54.815Z,27.71
2022-08-05T00:37:12.567Z,27.57
2022-08-05T00:39:57.198Z,27.49
2022-08-05T00:42:36.661Z,27.45
2022-08-05T00:45:05.378Z,27.37
2022-08-05T00:47:56.570Z,27.39
2022-08-05T00:50:25.412Z,27.39
2022-08-05T00:52:53.313Z,27.42
2022-08-05T00:55:21.479Z,27.39
2022-08-05T00:57:57.979Z,27.35
2022-08-05T01:00:29.688Z,27.28
2022-08-05T01:02:57.807Z,27.20
2022-08-05T01:05:27.565Z,27.21
2022-08-05T01:08:40.997Z,27.28
2022-08-05T01:10:51.435Z,27.31
2022-08-05T01:13:58.436Z,27.30
2022-08-05T01:16:29.995Z,27.22
2022-08-05T01:19:01.157Z,27.22
2022-08-05T01:21:38.974Z,27.29
2022-08-05T01:24:26.794Z,27.20
2022-08-05T01:27:17.608Z,27.22
2022-08-05T01:29:47.564Z,27.21
2022-08-05T01:32:18.696Z,27.26
2022-08-05T01:34:53.461Z,27.15
2022-08-05T01:37:44.566Z,27.20
2022-08-05T01:40:12.620Z,27.12
2022-08-05T01:42:41.721Z,27.13
2022-08-05T01:45:09.070Z,27.17
2022-08-05T01:47:39.527Z,27.20
2022-08-05T01:50:15.761Z,27.15
2022-08-05T01:52:49.984Z,27.14
2022-08-05T01:55:18.500Z,27.08
2022-08-05T01:58:18.782Z,27.05
2022-08-05T02:00:35.526Z,27.01
2022-08-05T02:03:23.981Z,27.03
2022-08-05T02:05:53.561Z,27.09
2022-08-05T02:08:30.957Z,27.07
2022-08-05T02:11:03.437Z,26.96
2022-08-05T02:13:36.494Z,26.88
2022-08-05T02:16:28.323Z,26.84
2022-08-05T02:19:16.848Z,26.80
2022-08-05T02:21:54.643Z,26.75
2022-08-05T02:24:23.516Z,26.72
2022-08-05T02:26:55.142Z,26.62
2022-08-05T02:29:26.271Z,26.56
2022-08-05T02:32:12.131Z,26.61
2022-08-05T02:34:54.830Z,26.66
2022-08-05T02:37:23.466Z,26.62
2022-08-05T02:39:52.255Z,26.63
2022-08-05T02:42:27.312Z,26.63
2022-08-05T02:44:55.336Z,26.62
2022-08-05T02:47:22.724Z,26.61
2022-08-05T02:49:49.913Z,26.55
2022-08-05T02:52:25.939Z,26.52
2022-08-05T02:54:57.083Z,26.61
2022-08-05T02:58:11.882Z,26.62
2022-08-05T03:00:13.180Z,26.62
2022-08-05T03:02:40.853Z,26.54
2022-08-05T03:05:11.464Z,26.46
2022-08-05T03:07:59.220Z,26.42
2022-08-05T03:10:26.509Z,26.40
2022-08-05T03:12:54.287Z,26.34
2022-08-05T03:15:23.496Z,26.34
2022-08-05T03:17:53.874Z,26.37
2022-08-05T03:20:21.899Z,26.42
2022-08-05T03:22:50.540Z,26.46
2022-08-05T03:25:32.834Z,26.54
2022-08-05T03:28:02.103Z,26.48
2022-08-05T03:30:33.557Z,26.42
2022-08-05T03:33:01.681Z,26.47
2022-08-05T03:35:28.889Z,26.51
2022-08-05T03:38:02.585Z,26.52
2022-08-05T03:40:32.393Z,26.41
2022-08-05T03:43:01.390Z,26.28
2022-08-05T03:45:58.316Z,26.26
2022-08-05T03:48:29.595Z,26.16
2022-08-05T03:52:48.554Z,26.01
2022-08-05T03:55:34.006Z,26.01
2022-08-05T03:57:16.688Z,26.00
2022-08-05T03:59:55.580Z,26.06
2022-08-05T04:02:38.469Z,26.02
2022-08-05T04:05:12.743Z,26.01
2022-08-05T04:07:53.167Z,26.03
2022-08-05T04:10:27.907Z,26.10
2022-08-05T04:12:55.633Z,26.19
2022-08-05T04:15:26.465Z,26.29
2022-08-05T04:17:56.236Z,26.36
2022-08-05T04:20:24.370Z,26.35
2022-08-05T04:22:51.084Z,26.43
2022-08-05T04:25:17.821Z,26.55
2022-08-05T04:27:56.855Z,26.64
2022-08-05T04:30:24.789Z,26.73
2022-08-05T04:32:53.194Z,26.82
2022-08-05T04:35:20.067Z,26.99
2022-08-05T04:38:02.695Z,27.12
2022-08-05T04:40:37.098Z,27.30
2022-08-05T04:43:04.598Z,27.44
2022-08-05T04:45:48.351Z,27.51
2022-08-05T04:48:18.411Z,27.58
2022-08-05T04:51:03.075Z,27.74
2022-08-05T04:53:36.653Z,27.93
2022-08-05T04:56:14.643Z,28.08
2022-08-05T04:58:55.967Z,28.13
2022-08-05T05:02:08.196Z,28.40
2022-08-05T05:04:09.504Z,28.52
2022-08-05T05:06:44.385Z,28.33
2022-08-05T05:09:14.055Z,28.05
2022-08-05T05:11:53.139Z,27.83
2022-08-05T05:14:27.863Z,27.70
2022-08-05T05:16:59.881Z,27.63
2022-08-05T05:19:37.171Z,27.55
2022-08-05T05:22:23.839Z,27.53
2022-08-05T05:24:58.365Z,27.53
2022-08-05T05:27:45.143Z,27.56
2022-08-05T05:30:29.093Z,27.57
2022-08-05T05:33:00.782Z,27.56
2022-08-05T05:35:29.184Z,27.58
2022-08-05T05:38:03.437Z,27.70
2022-08-05T05:40:32.385Z,27.76
2022-08-05T05:43:02.122Z,27.81
2022-08-05T05:45:29.064Z,27.86
2022-08-05T05:48:06.410Z,27.84
2022-08-05T05:50:41.029Z,27.87
2022-08-05T05:53:22.333Z,27.91
2022-08-05T05:55:51.961Z,27.99
2022-08-05T05:58:32.056Z,28.09
2022-08-05T06:01:02.485Z,28.14
2022-08-05T06:04:01.378Z,28.25
2022-08-05T06:06:30.982Z,28.32
2022-08-05T06:08:59.154Z,28.43
2022-08-05T06:11:25.990Z,28.51
2022-08-05T06:13:54.127Z,28.61
2022-08-05T06:16:30.124Z,28.73
2022-08-05T06:19:02.034Z,28.87
2022-08-05T06:21:36.505Z,29.00
2022-08-05T06:24:06.253Z,29.15
2022-08-05T06:26:37.793Z,29.12
2022-08-05T06:29:23.555Z,29.15
2022-08-05T06:31:51.274Z,29.28
2022-08-05T06:34:20.284Z,29.41
2022-08-05T06:36:57.946Z,29.53
2022-08-05T06:39:27.723Z,29.61
2022-08-05T06:41:56.442Z,29.69
2022-08-05T06:44:26.478Z,29.77
2022-08-05T06:46:54.370Z,29.93
2022-08-05T06:49:21.549Z,30.12
2022-08-05T06:52:08.087Z,30.34
2022-08-05T06:54:54.622Z,30.65
2022-08-05T06:58:03.961Z,30.93
2022-08-05T07:00:09.795Z,31.18
2022-08-05T07:02:46.572Z,31.43
2022-08-05T07:05:15.389Z,31.56
2022-08-05T07:07:49.008Z,31.71
2022-08-05T07:10:16.503Z,31.80
2022-08-05T07:13:03.006Z,32.04
2022-08-05T07:16:01.652Z,32.12
2022-08-05T07:18:31.597Z,32.23
2022-08-05T07:20:58.479Z,32.20
2022-08-05T07:23:31.444Z,32.18
2022-08-05T07:25:57.974Z,32.14
2022-08-05T07:28:25.255Z,31.91
2022-08-05T07:30:53.989Z,31.75
2022-08-05T07:33:36.983Z,31.92
2022-08-05T07:36:20.557Z,31.98
2022-08-05T07:38:49.962Z,31.89
2022-08-05T07:42:08.518Z,31.73
2022-08-05T07:44:19.210Z,31.61
2022-08-05T07:46:49.303Z,31.52
2022-08-05T07:49:18.233Z,31.49
2022-08-05T07:51:53.640Z,31.47
2022-08-05T07:54:31.021Z,31.42
2022-08-05T07:57:16.927Z,31.42
2022-08-05T07:59:48.986Z,31.48
2022-08-05T08:02:17.624Z,31.67
2022-08-05T08:04:49.403Z,31.99
2022-08-05T08:07:22.057Z,32.23
2022-08-05T08:09:52.609Z,32.34
2022-08-05T08:12:33.409Z,32.35
2022-08-05T08:15:14.010Z,32.56
2022-08-05T08:17:43.958Z,32.88
2022-08-05T08:20:43.326Z,33.01
2022-08-05T08:23:03.388Z,32.87
2022-08-05T08:25:59.771Z,32.74
2022-08-05T08:28:18.139Z,32.63
2022-08-05T08:30:47.780Z,32.80
2022-08-05T08:33:16.705Z,33.13
2022-08-05T08:35:52.806Z,33.25
2022-08-05T08:38:35.897Z,33.21
2022-08-05T08:41:10.263Z,33.14
2022-08-05T08:45:23.097Z,33.19
2022-08-05T08:46:29.460Z,33.48
2022-08-05T08:49:06.386Z,33.72
2022-08-05T08:52:04.032Z,33.69
2022-08-05T08:54:33.495Z,33.73
2022-08-05T08:57:03.361Z,33.81
2022-08-05T08:59:33.752Z,33.83
2022-08-05T09:02:02.147Z,33.82
2022-08-05T09:04:30.513Z,33.75
2022-08-05T09:06:58.466Z,33.71
2022-08-05T09:09:25.939Z,33.63
2022-08-05T09:12:03.394Z,33.50
2022-08-05T09:14:58.634Z,33.43
2022-08-05T09:17:40.648Z,33.62
2022-08-05T09:20:10.947Z,33.63
2022-08-05T09:23:05.506Z,33.59
2022-08-05T09:26:01.997Z,33.54
2022-08-05T09:28:24.436Z,33.67
2022-08-05T09:31:22.339Z,33.74
2022-08-05T09:33:56.207Z,33.83
2022-08-05T09:36:27.591Z,34.03
2022-08-05T09:39:16.378Z,34.23
2022-08-05T09:42:04.703Z,34.28
2022-08-05T09:44:51.251Z,34.15
2022-08-05T09:47:22.432Z,34.08
2022-08-05T09:50:02.262Z,34.04
2022-08-05T09:52:31.497Z,34.02
2022-08-05T09:55:57.697Z,34.01
2022-08-05T09:58:00.337Z,33.91
2022-08-05T10:00:27.609Z,33.87
2022-08-05T10:02:58.670Z,33.96
2022-08-05T10:05:27.768Z,34.22
2022-08-05T10:08:34.631Z,34.32
2022-08-05T10:10:50.250Z,34.42
2022-08-05T10:13:43.864Z,34.53
2022-08-05T10:16:32.108Z,34.63
2022-08-05T10:19:01.509Z,34.66
2022-08-05T10:21:40.150Z,34.81
2022-08-05T10:24:13.493Z,34.86
2022-08-05T10:26:51.516Z,34.62
2022-08-05T10:29:23.912Z,34.32
2022-08-05T10:32:52.806Z,34.21
2022-08-05T10:35:01.167Z,34.28
2022-08-05T10:37:40.331Z,34.26
2022-08-05T10:40:46.734Z,34.27
2022-08-05T10:43:37.584Z,34.35
2022-08-05T10:46:07.841Z,34.25
2022-08-05T10:48:52.721Z,34.23
2022-08-05T10:51:29.072Z,34.36
2022-08-05T10:53:56.246Z,34.21
2022-08-05T10:56:27.365Z,33.87
2022-08-05T10:58:53.845Z,33.57
2022-08-05T11:02:03.836Z,33.34
2022-08-05T11:04:21.369Z,33.14
2022-08-05T11:07:00.643Z,32.95
2022-08-05T11:09:39.237Z,32.88
2022-08-05T11:12:34.678Z,32.83
2022-08-05T11:15:20.125Z,33.00
2022-08-05T11:18:00.178Z,33.18
2022-08-05T11:20:45.130Z,33.26
2022-08-05T11:23:33.678Z,33.34
2022-08-05T11:26:28.031Z,33.45
2022-08-05T11:29:02.426Z,33.53
2022-08-05T11:31:56.648Z,33.56
2022-08-05T11:34:51.709Z,33.59
2022-08-05T11:38:36.741Z,33.65
2022-08-05T11:41:34.226Z,33.78
2022-08-05T11:44:04.492Z,33.85
2022-08-05T11:47:09.547Z,33.91
2022-08-05T11:49:24.917Z,33.99
2022-08-05T11:51:53.434Z,33.97
2022-08-05T11:54:33.400Z,33.93
2022-08-05T11:57:08.701Z,33.94
2022-08-05T11:59:49.705Z,33.93
2022-08-05T12:02:30.542Z,33.88
2022-08-05T12:05:06.774Z,33.94
2022-08-05T12:08:07.420Z,33.95
2022-08-05T12:10:43.129Z,33.99
2022-08-05T12:13:16.791Z,34.03
2022-08-05T12:15:49.948Z,34.00
2022-08-05T12:18:30.916Z,33.93
2022-08-05T12:21:15.537Z,33.91
2022-08-05T12:24:04.478Z,33.90
2022-08-05T12:26:44.370Z,33.84
2022-08-05T12:29:22.971Z,33.73
2022-08-05T12:31:57.743Z,33.57
2022-08-05T12:34:32.893Z,33.47
2022-08-05T12:37:10.712Z,33.20
2022-08-05T12:39:39.579Z,32.99
2022-08-05T12:42:14.635Z,32.88
2022-08-05T12:44:41.793Z,32.81
2022-08-05T12:47:22.403Z,32.70
2022-08-05T12:50:04.430Z,32.64
2022-08-05T12:52:41.709Z,32.58
2022-08-05T12:55:22.352Z,32.52
2022-08-05T12:58:49.788Z,32.52
2022-08-05T13:02:01.450Z,32.81
2022-08-05T13:03:31.930Z,33.01
2022-08-05T13:06:00.152Z,33.12
2022-08-05T13:08:32.152Z,33.18
2022-08-05T13:11:02.155Z,33.23
2022-08-05T13:14:05.234Z,33.30
2022-08-05T13:16:17.347Z,33.34
2022-08-05T13:18:59.574Z,33.25
2022-08-05T13:21:28.219Z,33.23
2022-08-05T13:24:04.478Z,33.22
2022-08-05T13:26:31.014Z,33.22
2022-08-05T13:28:59.108Z,33.20
2022-08-05T13:32:02.917Z,33.20
2022-08-05T13:34:22.023Z,33.27
2022-08-05T13:36:50.217Z,33.28
2022-08-05T13:39:24.460Z,33.30
2022-08-05T13:42:03.672Z,33.23
2022-08-05T13:44:30.161Z,33.14
2022-08-05T13:47:05.019Z,33.05
2022-08-05T13:49:35.576Z,33.00
2022-08-05T13:52:16.787Z,33.00
2022-08-05T13:54:43.442Z,33.07
2022-08-05T13:57:20.664Z,33.06
2022-08-05T13:59:57.585Z,33.07
2022-08-05T14:02:26.576Z,33.07
2022-08-05T14:05:11.454Z,33.07
2022-08-05T14:08:00.111Z,33.07
2022-08-05T14:10:28.392Z,33.02
2022-08-05T14:12:57.164Z,32.92
2022-08-05T14:16:04.742Z,32.90
2022-08-05T14:18:14.777Z,32.82
2022-08-05T14:20:47.063Z,32.82
2022-08-05T14:23:15.358Z,32.75
2022-08-05T14:25:53.985Z,32.74
2022-08-05T14:28:26.783Z,32.80
2022-08-05T14:30:54.541Z,32.82
2022-08-05T14:33:22.792Z,32.86
2022-08-05T14:35:51.693Z,32.82
2022-08-05T14:38:32.937Z,32.76
2022-08-05T14:41:05.611Z,32.77
2022-08-05T14:44:02.107Z,32.72
2022-08-05T14:46:21.749Z,32.69
2022-08-05T14:48:50.000Z,32.64
2022-08-05T14:51:17.569Z,32.68
2022-08-05T14:53:44.960Z,32.76
2022-08-05T14:56:12.103Z,32.59
2022-08-05T14:58:47.569Z,32.37
2022-08-05T15:01:24.205Z,32.21
2022-08-05T15:04:11.530Z,32.05
2022-08-05T15:06:38.759Z,32.03
2022-08-05T15:09:07.127Z,32.20
2022-08-05T15:11:50.894Z,32.40
2022-08-05T15:14:34.871Z,32.49
2022-08-05T15:17:09.784Z,32.54
2022-08-05T15:19:53.561Z,32.68
2022-08-05T15:22:21.908Z,32.72
2022-08-05T15:24:54.173Z,32.72
2022-08-05T15:27:20.738Z,32.69
2022-08-05T15:29:47.231Z,32.60
2022-08-05T15:32:16.376Z,32.34
2022-08-05T15:34:43.217Z,32.18
2022-08-05T15:38:08.702Z,32.13
2022-08-05T15:41:02.715Z,32.13
2022-08-05T15:42:57.051Z,32.13
2022-08-05T15:45:38.682Z,32.16
2022-08-05T15:48:05.696Z,32.13
2022-08-05T15:50:33.549Z,32.16
2022-08-05T15:53:05.162Z,32.21
2022-08-05T15:56:01.805Z,32.21
2022-08-05T15:58:18.902Z,32.09
2022-08-05T16:00:50.871Z,32.03
2022-08-05T16:03:33.818Z,31.99
2022-08-05T16:06:00.639Z,32.03
2022-08-05T16:08:30.417Z,31.98
2022-08-05T16:10:57.293Z,31.92
2022-08-05T16:13:32.074Z,31.86
2022-08-05T16:16:01.982Z,31.85
2022-08-05T16:18:30.869Z,31.79
2022-08-05T16:20:57.533Z,31.66
2022-08-05T16:23:24.250Z,31.56
2022-08-05T16:25:55.194Z,31.47
2022-08-05T16:28:22.467Z,31.36
2022-08-05T16:30:52.111Z,31.28
2022-08-05T16:33:19.464Z,31.22
2022-08-05T16:35:49.936Z,31.16
2022-08-05T16:38:25.084Z,31.08
2022-08-05T16:41:00.030Z,31.02
2022-08-05T16:43:35.135Z,30.99
2022-08-05T16:46:23.877Z,31.07
2022-08-05T16:48:50.430Z,31.18
2022-08-05T16:51:17.505Z,31.26
2022-08-05T16:54:04.335Z,31.40
2022-08-05T16:56:33.658Z,31.55
2022-08-05T16:59:08.465Z,31.65
2022-08-05T17:01:53.709Z,31.76
2022-08-05T17:04:23.666Z,31.88
2022-08-05T17:06:53.310Z,31.93
2022-08-05T17:09:20.523Z,31.92
2022-08-05T17:11:48.723Z,31.83
2022-08-05T17:14:22.334Z,31.76
2022-08-05T17:17:01.401Z,31.71
2022-08-05T17:19:29.302Z,31.75
2022-08-05T17:21:57.211Z,31.79
2022-08-05T17:24:35.034Z,31.82
2022-08-05T17:27:08.175Z,31.85
2022-08-05T17:29:40.833Z,31.88
2022-08-05T17:32:17.572Z,31.81
2022-08-05T17:34:47.691Z,31.64
2022-08-05T17:37:40.443Z,31.46
2022-08-05T17:40:10.985Z,31.23
2022-08-05T17:42:41.410Z,31.20
2022-08-05T17:45:20.875Z,31.12
2022-08-05T17:47:53.904Z,31.04
2022-08-05T17:50:27.817Z,31.03
2022-08-05T17:52:55.748Z,31.20
2022-08-05T17:55:27.372Z,31.31
2022-08-05T17:58:09.635Z,31.39
2022-08-05T18:00:45.261Z,31.48
2022-08-05T18:03:48.469Z,31.32
2022-08-05T18:06:11.829Z,31.05
2022-08-05T18:08:40.630Z,30.86
2022-08-05T18:11:23.771Z,30.74
2022-08-05T18:13:59.757Z,30.61
2022-08-05T18:16:26.580Z,30.49
2022-08-05T18:18:53.103Z,30.44
2022-08-05T18:21:22.772Z,30.41
2022-08-05T18:23:53.815Z,30.40
2022-08-05T18:26:27.831Z,30.32
2022-08-05T18:28:56.965Z,30.28
2022-08-05T18:31:23.994Z,30.18
2022-08-05T18:33:51.665Z,30.05
2022-08-05T18:36:19.172Z,29.95
2022-08-05T18:38:46.195Z,30.00
2022-08-05T18:41:55.606Z,29.95
2022-08-05T18:44:06.380Z,29.88
2022-08-05T18:46:34.554Z,29.83
2022-08-05T18:49:21.320Z,29.68
2022-08-05T18:52:09.053Z,29.54
2022-08-05T18:54:41.435Z,29.45
2022-08-05T18:57:15.292Z,29.35
2022-08-05T19:00:03.337Z,29.19
2022-08-05T19:02:28.988Z,29.01
2022-08-05T19:05:02.194Z,28.93
2022-08-05T19:07:46.554Z,29.02
2022-08-05T19:10:17.659Z,29.25
2022-08-05T19:12:46.202Z,29.43
2022-08-05T19:15:57.147Z,29.50
2022-08-05T19:18:09.739Z,29.47
2022-08-05T19:20:41.549Z,29.49
2022-08-05T19:23:22.774Z,29.57
2022-08-05T19:26:01.913Z,29.85
2022-08-05T19:28:32.926Z,29.85
2022-08-05T19:31:00.294Z,29.63
2022-08-05T19:33:35.437Z,29.55
2022-08-05T19:36:06.780Z,29.54
2022-08-05T19:38:35.666Z,29.61
2022-08-05T19:41:02.892Z,29.64
2022-08-05T19:44:06.886Z,29.80
2022-08-05T19:46:30.376Z,29.86
2022-08-05T19:49:01.214Z,29.91
2022-08-05T19:52:05.240Z,29.88
2022-08-05T19:54:22.849Z,29.85
2022-08-05T19:56:56.367Z,29.86
2022-08-05T20:00:01.047Z,29.85
2022-08-05T20:02:09.625Z,29.84
2022-08-05T20:04:37.777Z,29.84
2022-08-05T20:07:13.177Z,29.89
2022-08-05T20:09:54.092Z,29.91
2022-08-05T20:12:24.104Z,29.97
2022-08-05T20:14:52.251Z,29.96
2022-08-05T20:17:23.219Z,29.88
2022-08-05T20:19:49.982Z,29.86
2022-08-05T20:22:16.882Z,29.91
2022-08-05T20:24:43.411Z,29.93
2022-08-05T20:27:11.114Z,29.93
2022-08-05T20:29:38.263Z,29.83
2022-08-05T20:32:06.488Z,29.62
2022-08-05T20:34:33.039Z,29.49
2022-08-05T20:37:00.779Z,29.40
2022-08-05T20:39:35.464Z,29.33
2022-08-05T20:42:04.122Z,29.32
2022-08-05T20:44:33.083Z,29.28
2022-08-05T20:47:07.389Z,29.23
2022-08-05T20:49:39.755Z,29.22
2022-08-05T20:52:06.996Z,29.29
2022-08-05T20:54:58.957Z,29.30
2022-08-05T20:57:42.541Z,29.41
2022-08-05T21:00:19.756Z,29.41
2022-08-05T21:02:57.845Z,29.32
2022-08-05T21:05:24.663Z,29.28
2022-08-05T21:07:52.267Z,29.21
2022-08-05T21:10:19.275Z,29.21
2022-08-05T21:12:58.068Z,29.19
2022-08-05T21:15:33.836Z,29.23
2022-08-05T21:18:00.763Z,29.28
2022-08-05T21:20:32.773Z,29.26
2022-08-05T21:23:00.188Z,29.21
2022-08-05T21:25:33.829Z,29.20
2022-08-05T21:28:03.148Z,29.17
2022-08-05T21:30:29.928Z,29.15
2022-08-05T21:32:56.512Z,29.16
2022-08-05T21:35:29.608Z,29.06
2022-08-05T21:37:57.282Z,28.96
2022-08-05T21:40:24.620Z,28.81
2022-08-05T21:42:53.573Z,28.69
2022-08-05T21:45:24.748Z,28.65
2022-08-05T21:48:08.945Z,28.60
2022-08-05T21:50:36.666Z,28.56
2022-08-05T21:53:16.442Z,28.62
2022-08-05T21:56:05.395Z,28.61
2022-08-05T21:58:32.205Z,28.64
2022-08-05T22:00:59.378Z,28.64
2022-08-05T22:03:49.118Z,28.60
2022-08-05T22:06:12.567Z,28.58
2022-08-05T22:08:42.766Z,28.62
2022-08-05T22:11:12.018Z,28.60
2022-08-05T22:14:19.510Z,28.51
2022-08-05T22:16:41.786Z,28.49
2022-08-05T22:19:57.414Z,28.44
2022-08-05T22:22:02.093Z,28.40
2022-08-05T22:24:51.813Z,28.32
2022-08-05T22:28:08.176Z,28.34
2022-08-05T22:30:24.762Z,28.31
2022-08-05T22:32:59.121Z,28.24
2022-08-05T22:35:25.738Z,28.20
2022-08-05T22:37:59.057Z,28.14
2022-08-05T22:40:26.457Z,28.09
2022-08-05T22:42:58.185Z,28.02
2022-08-05T22:45:26.368Z,28.00
2022-08-05T22:47:55.363Z,28.04
2022-08-05T22:50:27.846Z,28.00
2022-08-05T22:52:54.882Z,27.95
2022-08-05T22:55:23.796Z,28.01
2022-08-05T22:57:51.741Z,28.10
2022-08-05T23:00:20.474Z,28.04
2022-08-05T23:02:48.081Z,27.97
2022-08-05T23:05:15.600Z,27.88
2022-08-05T23:07:45.449Z,27.78
2022-08-05T23:10:16.323Z,27.73
2022-08-05T23:12:47.047Z,27.67
2022-08-05T23:15:13.721Z,27.65
2022-08-05T23:18:01.476Z,27.66
2022-08-05T23:20:29.511Z,27.67
2022-08-05T23:22:56.537Z,27.67
2022-08-05T23:25:53.303Z,27.69
2022-08-05T23:28:12.159Z,27.71
2022-08-05T23:30:40.464Z,27.73
2022-08-05T23:33:16.029Z,27.69
2022-08-05T23:35:50.302Z,27.65
2022-08-05T23:38:17.042Z,27.61
2022-08-05T23:40:50.216Z,27.56
2022-08-05T23:43:25.815Z,27.56
2022-08-05T23:46:21.223Z,27.51
2022-08-05T23:49:00.213Z,27.46
2022-08-05T23:51:53.587Z,27.37
2022-08-05T23:54:36.419Z,27.38
2022-08-05T23:57:05.552Z,27.33
